Time;durP1;ratioP1;P1;durP2;ratioP2;P2;SDS_P1;SDS_P2;PMS_P1;PMS_P2;Temp;Humidity;BMP_temperature;BMP_pressure;BME280_temperature;BME280_humidity;BME280_pressure;Samples;Min_cycle;Max_cycle;Signal;HPM_P1;HPM_P2
2022/07/14 00:02:24;;;;;;;0.88;0.30;;;;;;;26.58;50.70;101086.34;5050658;28;20040;-69
2022/07/14 00:04:49;;;;;;;1.00;0.40;;;;;;;26.58;50.58;101087.16;5048771;28;20396;-69
2022/07/14 00:07:15;;;;;;;1.48;0.28;;;;;;;26.58;50.61;101089.81;5050860;28;20052;-69
2022/07/14 00:09:40;;;;;;;2.03;0.30;;;;;;;26.58;50.27;101081.00;5050754;28;20040;-69
2022/07/14 00:12:05;;;;;;;1.40;0.43;;;;;;;26.59;50.33;101080.75;5050311;28;20507;-69
2022/07/14 00:14:31;;;;;;;2.40;0.30;;;;;;;26.59;50.37;101080.75;5049291;28;20411;-69
2022/07/14 00:16:57;;;;;;;0.73;0.30;;;;;;;26.59;50.15;101077.28;5050869;28;20036;-69
2022/07/14 00:19:22;;;;;;;0.80;0.30;;;;;;;26.58;50.33;101076.47;5047972;28;20025;-69
2022/07/14 00:21:47;;;;;;;0.73;0.25;;;;;;;26.58;50.09;101081.81;5050797;28;20508;-69
2022/07/14 00:24:13;;;;;;;0.52;0.28;;;;;;;26.57;50.06;101080.19;5048014;28;20503;-69
2022/07/14 00:26:42;;;;;;;0.40;0.20;;;;;;;26.58;50.10;101084.47;5050093;28;20476;-69
2022/07/14 00:29:08;;;;;;;2.08;0.30;;;;;;;26.57;50.17;101074.03;5050204;28;20091;-69
2022/07/14 00:31:35;;;;;;;2.15;0.30;;;;;;;26.56;50.07;101075.88;5050046;28;20052;-69
2022/07/14 00:34:00;;;;;;;1.13;0.30;;;;;;;26.55;49.98;101068.91;5048301;28;20029;-69
2022/07/14 00:36:27;;;;;;;3.42;0.30;;;;;;;26.55;49.96;101071.59;5050240;28;20024;-70
2022/07/14 00:38:53;;;;;;;1.73;0.40;;;;;;;26.55;49.85;101078.78;5050041;28;20492;-69
2022/07/14 00:41:19;;;;;;;1.70;0.30;;;;;;;26.54;50.21;101075.31;5049873;28;20033;-69
2022/07/14 00:43:45;;;;;;;0.63;0.30;;;;;;;26.53;50.05;101068.34;5047939;28;20039;-70
2022/07/14 00:46:10;;;;;;;1.40;0.30;;;;;;;26.53;50.08;101073.69;5049793;28;20381;-70
2022/07/14 00:48:36;;;;;;;0.47;0.30;;;;;;;26.52;49.88;101066.72;5048087;28;20025;-70
2022/07/14 00:51:01;;;;;;;0.98;0.30;;;;;;;26.52;50.03;101071.25;5049828;28;20028;-69
2022/07/14 00:53:27;;;;;;;1.17;0.30;;;;;;;26.53;50.12;101064.84;5049701;28;20108;-69
2022/07/14 00:55:52;;;;;;;0.70;0.30;;;;;;;26.54;50.03;101064.63;5047045;28;20512;-69
2022/07/14 00:58:18;;;;;;;0.38;0.22;;;;;;;26.55;49.71;101071.59;5048657;28;20025;-69
2022/07/14 01:00:44;;;;;;;1.23;0.22;;;;;;;26.56;49.97;101061.72;5049324;28;20032;-69
2022/07/14 01:03:10;;;;;;;0.88;0.30;;;;;;;26.57;49.55;101064.16;5048147;28;20051;-69
2022/07/14 01:05:35;;;;;;;2.17;0.30;;;;;;;26.57;49.50;101053.47;5048917;28;20460;-68
2022/07/14 01:08:01;;;;;;;0.40;0.20;;;;;;;26.59;49.60;101058.56;5049359;28;20039;-70
2022/07/14 01:10:26;;;;;;;4.10;0.32;;;;;;;26.60;49.51;101063.69;5048480;28;20090;-69
2022/07/14 01:12:52;;;;;;;1.30;0.20;;;;;;;26.60;49.51;101058.34;5047260;28;20103;-69
2022/07/14 01:15:18;;;;;;;0.88;0.50;;;;;;;26.61;49.45;101046.59;5048994;28;20401;-70
2022/07/14 01:17:47;;;;;;;0.80;0.30;;;;;;;26.62;49.32;101050.06;5049367;28;20036;-69
2022/07/14 01:20:14;;;;;;;0.63;0.20;;;;;;;26.62;49.51;101050.06;5048187;28;20115;-69
2022/07/14 01:22:40;;;;;;;0.32;0.20;;;;;;;26.60;49.52;101047.66;5049365;28;20400;-69
2022/07/14 01:25:07;;;;;;;2.28;0.30;;;;;;;26.60;49.47;101047.66;5049233;28;20020;-69
2022/07/14 01:27:36;;;;;;;1.40;0.40;;;;;;;26.58;49.40;101047.06;5049310;28;20043;-70
2022/07/14 01:30:03;;;;;;;2.58;0.40;;;;;;;26.58;49.60;101039.03;5046621;28;20021;-69
2022/07/14 01:32:28;;;;;;;1.85;0.30;;;;;;;26.56;49.27;101043.81;5046499;28;20033;-69
2022/07/14 01:34:54;;;;;;;1.27;0.28;;;;;;;26.55;49.51;101044.06;5047185;28;20086;-69
2022/07/14 01:37:20;;;;;;;2.53;0.28;;;;;;;26.54;49.73;101037.91;5047023;28;20500;-69
2022/07/14 01:39:46;;;;;;;1.05;0.30;;;;;;;26.54;49.65;101045.09;5048873;28;20032;-70
2022/07/14 01:42:12;;;;;;;1.60;0.40;;;;;;;26.54;49.63;101045.09;5046685;28;20044;-69
2022/07/14 01:44:38;;;;;;;1.10;0.30;;;;;;;26.52;49.60;101034.66;5049032;28;20104;-69
2022/07/14 01:47:04;;;;;;;0.68;0.20;;;;;;;26.51;49.53;101043.72;5046318;28;20025;-69
2022/07/14 01:49:29;;;;;;;1.13;0.30;;;;;;;26.51;49.59;101043.72;5047173;28;20071;-69
2022/07/14 01:51:54;;;;;;;0.75;0.30;;;;;;;26.50;49.74;101035.94;5048694;28;20025;-69
2022/07/14 01:54:20;;;;;;;2.17;0.30;;;;;;;26.49;49.54;101036.97;5048554;28;20463;-70
2022/07/14 01:56:45;;;;;;;0.60;0.30;;;;;;;26.49;49.78;101043.13;5045823;28;20029;-70
2022/07/14 01:59:11;;;;;;;1.33;0.30;;;;;;;26.49;49.60;101045.81;5047984;28;20108;-69
2022/07/14 02:01:40;;;;;;;1.90;0.40;;;;;;;26.49;49.59;101040.47;5048413;28;20767;-69
2022/07/14 02:04:08;;;;;;;1.73;0.20;;;;;;;26.49;49.41;101036.97;5047642;28;20473;-69
2022/07/14 02:06:33;;;;;;;0.47;0.40;;;;;;;26.50;49.25;101030.59;5046380;28;20029;-69
2022/07/14 02:08:59;;;;;;;0.63;0.30;;;;;;;26.51;49.33;101037.56;5048267;28;20025;-69
2022/07/14 02:14:10;;;;;;;0.43;0.22;;;;;;;26.53;49.14;101028.25;5046707;28;20523;-68
2022/07/14 02:16:36;;;;;;;0.75;0.30;;;;;;;26.55;49.28;101034.16;5048102;28;20025;-68
2022/07/14 02:19:02;;;;;;;0.60;0.20;;;;;;;26.55;49.36;101028.00;5048781;28;20029;-69
2022/07/14 02:21:28;;;;;;;0.55;0.25;;;;;;;26.55;49.30;101028.84;5044062;28;20056;-69
2022/07/14 02:23:54;;;;;;;0.70;0.20;;;;;;;26.55;49.02;101026.16;5047852;28;20029;-68
2022/07/14 02:26:20;;;;;;;1.60;0.30;;;;;;;26.56;49.24;101033.13;5048226;28;20021;-69
2022/07/14 02:28:45;;;;;;;1.85;0.22;;;;;;;26.56;49.34;101029.63;5048168;28;20036;-69
2022/07/14 02:31:11;;;;;;;0.82;0.20;;;;;;;26.56;49.12;101027.78;5047283;28;20366;-68
2022/07/14 02:33:37;;;;;;;1.30;0.30;;;;;;;26.55;49.19;101017.31;5048411;28;20361;-69
2022/07/14 02:36:03;;;;;;;0.60;0.22;;;;;;;26.55;48.92;101023.47;5046981;28;20052;-69
2022/07/14 02:38:29;;;;;;;0.28;0.20;;;;;;;26.53;49.05;101025.59;5047671;28;20392;-69
2022/07/14 02:43:26;;;;;;;1.27;0.30;;;;;;;26.48;48.89;101025.47;4784010;22;20067;-64
2022/07/14 02:45:51;;;;;;;1.42;0.30;;;;;;;26.48;48.83;101020.13;5068214;28;20037;-63
2022/07/14 02:48:17;;;;;;;2.15;0.25;;;;;;;26.48;48.80;101032.69;5068397;28;20024;-64
2022/07/14 02:50:42;;;;;;;1.17;0.30;;;;;;;26.47;48.95;101028.41;5067969;28;20033;-63
2022/07/14 02:53:08;;;;;;;1.25;0.30;;;;;;;26.46;48.79;101027.59;5068252;28;20031;-64
2022/07/14 02:55:37;;;;;;;1.65;0.30;;;;;;;26.44;48.94;101022.50;5068042;28;20464;-64
2022/07/14 02:58:04;;;;;;;1.55;0.20;;;;;;;26.44;48.76;101025.16;5068056;28;20029;-64
2022/07/14 03:00:30;;;;;;;2.13;0.43;;;;;;;26.44;48.73;101019.00;5068324;28;20029;-64
2022/07/14 03:02:57;;;;;;;0.63;0.20;;;;;;;26.45;48.79;101020.63;5068288;28;20242;-64
2022/07/14 03:05:23;;;;;;;2.67;0.30;;;;;;;26.45;48.71;101028.66;5068176;28;20460;-64
2022/07/14 03:07:48;;;;;;;0.63;0.25;;;;;;;26.46;48.74;101024.13;5068004;28;20108;-64
2022/07/14 03:10:14;;;;;;;1.17;0.30;;;;;;;26.46;48.81;101024.13;5068961;28;20077;-64
2022/07/14 03:12:39;;;;;;;1.10;0.30;;;;;;;26.45;48.94;101017.97;5071925;28;20369;-64
2022/07/14 03:15:07;;;;;;;1.05;0.30;;;;;;;26.45;48.96;101017.97;5072303;28;20372;-64
2022/07/14 03:17:33;;;;;;;1.73;0.30;;;;;;;26.46;48.95;101018.78;5072010;28;20052;-63
2022/07/14 03:19:58;;;;;;;0.60;0.30;;;;;;;26.45;48.67;101023.31;5071521;28;20052;-64
2022/07/14 03:22:24;;;;;;;1.90;0.30;;;;;;;26.44;48.80;101019.00;5071808;28;20047;-64
2022/07/14 03:24:49;;;;;;;1.50;0.20;;;;;;;26.44;49.00;101021.69;5071652;28;20131;-63
2022/07/14 03:27:15;;;;;;;0.80;0.30;;;;;;;26.44;48.84;101016.34;5071801;28;20025;-63
2022/07/14 03:29:41;;;;;;;0.73;0.20;;;;;;;26.44;48.96;101016.34;5071511;28;20024;-64
2022/07/14 03:32:07;;;;;;;1.20;0.30;;;;;;;26.44;48.64;101017.16;5071379;28;20040;-64
2022/07/14 03:34:32;;;;;;;0.82;0.32;;;;;;;26.45;48.61;101017.97;5071519;28;20028;-64
2022/07/14 03:36:59;;;;;;;0.90;0.30;;;;;;;26.45;48.57;101020.63;5071396;28;20051;-64
2022/07/14 03:39:25;;;;;;;1.15;0.30;;;;;;;26.45;48.68;101028.66;5071641;28;20070;-64
2022/07/14 03:41:50;;;;;;;0.88;0.30;;;;;;;26.44;48.48;101019.81;5071256;28;20480;-64
2022/07/14 03:44:16;;;;;;;1.25;0.30;;;;;;;26.45;48.44;101023.31;5071282;28;20039;-64
2022/07/14 03:46:41;;;;;;;1.17;0.22;;;;;;;26.45;48.68;101028.66;5071127;28;20024;-64
2022/07/14 03:49:07;;;;;;;0.63;0.20;;;;;;;26.44;48.73;101025.16;5071260;28;20074;-64
2022/07/14 03:51:32;;;;;;;1.10;0.28;;;;;;;26.44;48.54;101033.19;5071277;28;20531;-63
2022/07/14 03:53:58;;;;;;;1.00;0.28;;;;;;;26.44;48.75;101027.84;5071403;28;20058;-64
2022/07/14 03:56:23;;;;;;;0.95;0.30;;;;;;;26.44;48.76;101029.69;5070917;28;20031;-63
2022/07/14 03:58:49;;;;;;;1.13;0.40;;;;;;;26.43;48.58;101030.75;5071023;28;20502;-63
2022/07/14 04:01:14;;;;;;;0.50;0.30;;;;;;;26.41;48.59;101025.63;5071274;28;20054;-63
2022/07/14 04:03:40;;;;;;;1.10;0.30;;;;;;;26.41;48.52;101027.50;5070688;28;20101;-64
2022/07/14 04:06:05;;;;;;;0.70;0.20;;;;;;;26.40;48.48;101028.53;5071075;28;20039;-64
2022/07/14 04:08:31;;;;;;;0.50;0.20;;;;;;;26.40;48.66;101026.69;5070842;28;20488;-64
2022/07/14 04:10:56;;;;;;;1.77;0.30;;;;;;;26.39;48.61;101025.06;5071057;28;20477;-64
2022/07/14 04:13:22;;;;;;;1.15;0.20;;;;;;;26.39;48.47;101025.06;5070847;28;20020;-64
2022/07/14 04:15:47;;;;;;;0.88;0.30;;;;;;;26.40;48.61;101029.34;5070674;28;20025;-64
2022/07/14 04:18:13;;;;;;;2.05;0.30;;;;;;;26.40;48.18;101026.69;5070462;28;20078;-66
2022/07/14 04:20:38;;;;;;;1.92;0.30;;;;;;;26.38;48.35;101027.97;5070812;28;20090;-67
2022/07/14 04:23:04;;;;;;;0.82;0.30;;;;;;;26.38;48.51;101035.97;5069995;28;20036;-66
2022/07/14 04:25:30;;;;;;;2.60;0.40;;;;;;;26.37;48.69;101037.03;5070459;28;20500;-65
2022/07/14 04:27:55;;;;;;;1.85;0.30;;;;;;;26.34;48.65;101032.97;5070529;28;20028;-66
2022/07/14 04:30:21;;;;;;;1.58;0.30;;;;;;;26.35;48.40;101031.09;5070487;28;20029;-65
2022/07/14 04:32:47;;;;;;;2.50;0.30;;;;;;;26.34;48.59;101032.16;5070561;28;20178;-65
2022/07/14 04:35:12;;;;;;;0.60;0.20;;;;;;;26.33;48.85;101027.84;5070323;28;20502;-65
2022/07/14 04:37:38;;;;;;;5.55;0.40;;;;;;;26.32;48.60;101031.56;5070261;28;20052;-64
2022/07/14 04:40:04;;;;;;;1.20;0.30;;;;;;;26.32;48.56;101020.88;5070546;28;20121;-65
2022/07/14 04:42:30;;;;;;;1.27;0.30;;;;;;;26.33;48.78;101030.53;5070015;28;20064;-64
2022/07/14 04:44:56;;;;;;;1.38;0.30;;;;;;;26.33;48.65;101014.50;5070477;28;20024;-65
2022/07/14 04:47:21;;;;;;;1.75;0.40;;;;;;;26.35;48.64;101020.41;5070322;28;20028;-65
2022/07/14 04:52:30;;;;;;;0.65;0.25;;;;;;;26.35;48.99;101028.44;5070407;28;20399;-64
2022/07/14 04:54:56;;;;;;;1.10;0.20;;;;;;;26.34;48.71;101027.63;5070084;28;20021;-65
2022/07/14 04:57:22;;;;;;;1.20;0.30;;;;;;;26.36;48.81;101022.03;5069812;28;20029;-65
2022/07/14 04:59:48;;;;;;;2.72;0.30;;;;;;;26.35;48.67;101021.22;5069834;28;20071;-65
2022/07/14 05:02:14;;;;;;;0.70;0.20;;;;;;;26.37;48.77;101026.34;5070203;28;20025;-65
2022/07/14 05:04:40;;;;;;;0.70;0.35;;;;;;;26.38;48.74;101031.44;5070141;28;20033;-65
2022/07/14 05:07:06;;;;;;;1.73;0.20;;;;;;;26.40;48.54;101031.22;5070218;28;20051;-65
2022/07/14 05:09:34;;;;;;;0.93;0.20;;;;;;;26.40;48.44;101029.34;5069910;28;20649;-65
2022/07/14 05:12:01;;;;;;;1.73;0.40;;;;;;;26.40;48.67;101033.88;5069870;28;20067;-65
2022/07/14 05:14:27;;;;;;;2.58;0.20;;;;;;;26.40;48.84;101036.56;5070173;28;20028;-64
2022/07/14 05:16:53;;;;;;;1.20;0.25;;;;;;;26.40;48.66;101039.22;5070516;28;20040;-65
2022/07/14 05:19:18;;;;;;;1.00;0.30;;;;;;;26.38;48.99;101041.31;5070592;28;20146;-64
2022/07/14 05:21:45;;;;;;;1.63;0.30;;;;;;;26.37;49.04;101043.19;5070266;28;20029;-65
2022/07/14 05:24:11;;;;;;;3.30;0.45;;;;;;;26.34;49.12;101040.97;5070897;28;20428;-65
2022/07/14 05:26:37;;;;;;;2.35;0.30;;;;;;;26.32;49.12;101040.41;5070223;28;20056;-64
2022/07/14 05:29:03;;;;;;;2.15;0.30;;;;;;;26.33;49.29;101044.69;5069752;28;20133;-65
2022/07/14 05:31:28;;;;;;;1.58;0.43;;;;;;;26.32;49.29;101031.56;5070531;28;20048;-65
2022/07/14 05:33:56;;;;;;;2.50;0.45;;;;;;;26.32;49.24;101036.91;5069148;28;20028;-65
2022/07/14 05:36:23;;;;;;;0.95;0.38;;;;;;;26.30;49.48;101031.78;5070035;28;20044;-65
2022/07/14 05:38:49;;;;;;;0.73;0.30;;;;;;;26.31;49.59;101027.28;5069894;28;20027;-65
2022/07/14 05:41:15;;;;;;;3.15;0.40;;;;;;;26.30;49.54;101030.97;5069624;28;20024;-65
2022/07/14 05:43:43;;;;;;;2.72;0.40;;;;;;;26.30;49.64;101041.63;5069519;28;20059;-65
2022/07/14 05:46:10;;;;;;;0.60;0.30;;;;;;;26.30;49.44;101041.63;5069938;28;20028;-65
2022/07/14 05:48:37;;;;;;;1.73;0.30;;;;;;;26.30;49.63;101038.97;5069851;28;20391;-65
2022/07/14 05:51:08;;;;;;;3.67;0.40;;;;;;;26.30;49.53;101046.97;5069598;28;20037;-65
2022/07/14 05:53:35;;;;;;;0.73;0.40;;;;;;;26.29;49.66;101048.03;5069420;28;20474;-65
2022/07/14 05:56:01;;;;;;;2.28;0.43;;;;;;;26.30;49.59;101042.44;5069250;28;20051;-65
2022/07/14 05:58:27;;;;;;;4.40;0.30;;;;;;;26.30;49.52;101044.31;5069346;28;20029;-65
2022/07/14 06:00:52;;;;;;;1.65;0.30;;;;;;;26.29;49.51;101040.81;5069395;28;20034;-65
2022/07/14 06:03:19;;;;;;;1.50;0.38;;;;;;;26.30;49.45;101042.44;5069662;28;20517;-65
2022/07/14 06:05:45;;;;;;;1.63;0.30;;;;;;;26.32;49.51;101039.56;5069136;28;20082;-65
2022/07/14 06:08:10;;;;;;;2.58;0.30;;;;;;;26.34;49.60;101043.66;5069501;28;20021;-65
2022/07/14 06:10:36;;;;;;;0.80;0.30;;;;;;;26.36;49.25;101040.75;5069005;28;20028;-64
2022/07/14 06:13:03;;;;;;;1.40;0.30;;;;;;;26.37;49.59;101042.38;5068862;28;20068;-65
2022/07/14 06:15:29;;;;;;;3.95;0.30;;;;;;;26.37;49.79;101037.03;5068606;28;20480;-65
2022/07/14 06:17:55;;;;;;;0.95;0.30;;;;;;;26.37;49.56;101042.38;5068578;28;20021;-65
2022/07/14 06:20:20;;;;;;;0.47;0.30;;;;;;;26.37;49.49;101037.03;5068846;28;20024;-64
2022/07/14 06:22:47;;;;;;;1.45;0.47;;;;;;;26.38;49.67;101038.66;5068964;28;20020;-65
2022/07/14 06:25:13;;;;;;;1.08;0.30;;;;;;;26.38;49.76;101044.81;5068653;28;20033;-65
2022/07/14 06:27:38;;;;;;;1.13;0.40;;;;;;;26.39;49.45;101045.63;5068744;28;20033;-65
2022/07/14 06:30:08;;;;;;;1.45;0.40;;;;;;;26.38;49.61;101036.78;5068995;28;20519;-65
2022/07/14 06:32:39;;;;;;;1.67;0.30;;;;;;;26.37;49.69;101037.84;5068824;28;20052;-65
2022/07/14 06:35:08;;;;;;;3.17;0.50;;;;;;;26.37;49.62;101035.16;5069488;28;20044;-64
2022/07/14 06:37:36;;;;;;;1.20;0.30;;;;;;;26.35;49.83;101034.59;5068713;28;20509;-65
2022/07/14 06:40:05;;;;;;;3.47;0.50;;;;;;;26.34;49.82;101032.97;5068843;28;20465;-65
2022/07/14 06:42:31;;;;;;;2.30;0.30;;;;;;;26.34;49.60;101032.16;5068745;28;20457;-65
2022/07/14 06:44:56;;;;;;;1.40;0.30;;;;;;;26.35;49.81;101033.78;5068312;28;20388;-65
2022/07/14 06:47:22;;;;;;;1.27;0.40;;;;;;;26.34;49.92;101032.16;5068525;28;20350;-65
2022/07/14 06:49:48;;;;;;;1.75;0.20;;;;;;;26.34;49.80;101027.63;5068439;28;20383;-65
2022/07/14 06:52:13;;;;;;;0.88;0.30;;;;;;;26.33;49.75;101036.69;5068119;28;20537;-65
2022/07/14 06:54:38;;;;;;;2.97;0.30;;;;;;;26.35;49.63;101041.78;5068318;28;20024;-65
2022/07/14 06:57:04;;;;;;;1.85;0.30;;;;;;;26.35;49.71;101036.44;5068071;28;20033;-64
2022/07/14 06:59:29;;;;;;;0.93;0.30;;;;;;;26.35;49.53;101028.44;5068049;28;20029;-65
2022/07/14 07:01:55;;;;;;;0.63;0.20;;;;;;;26.35;49.34;101033.78;5068099;28;20090;-64
2022/07/14 07:04:21;;;;;;;1.08;0.30;;;;;;;26.36;49.49;101032.72;5068148;28;20170;-64
2022/07/14 07:06:46;;;;;;;1.20;0.30;;;;;;;26.36;49.55;101032.72;5067981;28;20032;-65
2022/07/14 07:09:13;;;;;;;0.43;0.20;;;;;;;26.37;49.38;101037.03;5067930;28;20021;-64
2022/07/14 07:11:39;;;;;;;1.27;0.30;;;;;;;26.38;49.18;101033.31;5067882;28;20206;-65
2022/07/14 07:14:05;;;;;;;2.10;0.20;;;;;;;26.36;49.19;101030.88;5068575;28;20120;-65
2022/07/14 07:16:31;;;;;;;1.27;0.22;;;;;;;26.38;49.13;101027.97;5068312;28;20028;-64
2022/07/14 07:18:56;;;;;;;0.38;0.20;;;;;;;26.37;49.38;101026.34;5068346;28;20021;-64
2022/07/14 07:21:22;;;;;;;2.00;0.35;;;;;;;26.38;49.31;101023.44;5068071;28;20436;-63
2022/07/14 07:23:51;;;;;;;0.90;0.20;;;;;;;26.39;49.03;101024.25;5068314;28;20434;-64
2022/07/14 07:26:17;;;;;;;1.65;0.43;;;;;;;26.38;49.52;101014.59;5068235;28;20480;-65
2022/07/14 07:28:43;;;;;;;1.48;0.30;;;;;;;26.38;49.37;101022.63;5067905;28;20620;-64
2022/07/14 07:31:08;;;;;;;0.85;0.20;;;;;;;26.38;49.30;101018.09;5067812;28;20025;-65
2022/07/14 07:33:34;;;;;;;3.35;0.30;;;;;;;26.40;49.20;101021.34;5067838;28;20028;-65
2022/07/14 07:36:00;;;;;;;2.15;0.20;;;;;;;26.41;49.20;101014.94;5067652;28;20543;-65
2022/07/14 07:38:27;;;;;;;2.58;0.40;;;;;;;26.41;49.27;101017.63;5067820;28;20031;-65
2022/07/14 07:40:53;;;;;;;0.65;0.25;;;;;;;26.42;49.24;101015.75;5067712;28;20029;-65
2022/07/14 07:43:22;;;;;;;3.42;0.30;;;;;;;26.43;49.51;101012.03;5067501;28;20049;-64
2022/07/14 07:45:50;;;;;;;3.20;0.68;;;;;;;26.45;49.93;101012.63;5067580;28;20036;-65
2022/07/14 07:48:16;;;;;;;4.93;0.60;;;;;;;26.47;50.46;101009.72;5067688;28;20063;-65
2022/07/14 07:50:43;;;;;;;5.88;0.90;;;;;;;26.50;51.90;101003.88;5067823;28;20060;-65
2022/07/14 07:53:09;;;;;;;2.97;0.63;;;;;;;26.54;51.62;101011.16;5067397;28;20362;-66
2022/07/14 07:55:35;;;;;;;3.10;0.60;;;;;;;26.52;51.51;101002.59;5067722;28;20571;-63
2022/07/14 07:58:01;;;;;;;6.53;0.70;;;;;;;26.55;51.67;101006.63;5069652;28;20020;-67
2022/07/14 08:00:27;;;;;;;2.92;0.50;;;;;;;26.53;51.72;101004.22;5071003;28;20400;-63
2022/07/14 08:02:53;;;;;;;4.82;1.67;;;;;;;26.54;51.45;100995.13;5071170;28;20455;-63
2022/07/14 08:05:24;;;;;;;3.38;0.40;;;;;;;26.54;51.29;100995.13;5066741;28;20075;-64
2022/07/14 08:07:50;;;;;;;3.47;0.70;;;;;;;26.54;51.25;100995.13;5054496;28;20115;-63
2022/07/14 08:10:16;;;;;;;3.17;0.47;;;;;;;26.55;51.31;100990.59;5070984;28;20181;-64
2022/07/14 08:12:42;;;;;;;1.80;0.32;;;;;;;26.55;51.40;100980.72;5069651;28;20036;-64
2022/07/14 08:15:08;;;;;;;2.65;0.52;;;;;;;26.57;51.25;100993.84;5070178;28;20032;-64
2022/07/14 08:17:34;;;;;;;4.13;0.60;;;;;;;26.55;50.98;100994.09;5070656;28;20033;-63
2022/07/14 08:20:00;;;;;;;7.95;0.60;;;;;;;26.56;51.00;100995.72;5070806;28;20028;-63
2022/07/14 08:22:28;;;;;;;3.10;0.30;;;;;;;26.56;50.99;100990.38;5070760;28;20024;-63
2022/07/14 08:24:54;;;;;;;3.97;0.70;;;;;;;26.56;50.95;100992.22;5067168;28;20040;-63
2022/07/14 08:27:20;;;;;;;1.92;0.60;;;;;;;26.56;51.04;100989.56;5069356;28;20042;-63
2022/07/14 08:29:46;;;;;;;4.22;0.50;;;;;;;26.53;50.97;100993.53;5071036;28;20036;-63
2022/07/14 08:32:11;;;;;;;3.10;0.40;;;;;;;26.54;50.94;100991.66;5070370;28;20529;-63
2022/07/14 08:34:37;;;;;;;2.85;0.52;;;;;;;26.54;50.87;100989.00;5070185;28;20127;-63
2022/07/14 08:37:03;;;;;;;5.90;0.52;;;;;;;26.54;51.01;100989.78;5067952;28;20059;-65
2022/07/14 08:39:29;;;;;;;3.10;0.82;;;;;;;26.55;50.93;100995.94;5070648;28;20086;-67
2022/07/14 08:41:54;;;;;;;4.65;0.30;;;;;;;26.55;50.99;100990.59;5070561;28;20383;-65
2022/07/14 08:44:21;;;;;;;3.55;0.50;;;;;;;26.56;51.08;100993.03;5070188;28;20058;-67
2022/07/14 08:46:47;;;;;;;6.93;0.50;;;;;;;26.55;50.96;100996.75;5068894;28;20492;-66
2022/07/14 08:49:16;;;;;;;2.33;0.55;;;;;;;26.58;51.01;100995.47;5070268;28;20376;-64
2022/07/14 08:51:43;;;;;;;2.45;0.40;;;;;;;26.59;50.90;100997.09;5070068;28;20024;-64
2022/07/14 08:54:09;;;;;;;3.35;0.40;;;;;;;26.59;50.69;100989.91;5066421;28;20043;-65
2022/07/14 08:56:36;;;;;;;4.07;0.35;;;;;;;26.61;50.08;100995.00;5070158;28;20025;-66
2022/07/14 08:59:02;;;;;;;2.25;0.30;;;;;;;26.61;50.35;100989.66;5070008;28;20036;-66
2022/07/14 09:01:27;;;;;;;3.65;0.50;;;;;;;26.64;50.21;100987.34;5069991;28;20415;-66
2022/07/14 09:03:54;;;;;;;5.55;0.30;;;;;;;26.66;49.71;100987.09;5068549;28;20024;-66
2022/07/14 09:06:44;;;;;;;1.95;0.40;;;;;;;26.66;50.04;100981.75;5070639;28;20056;-66
2022/07/14 09:09:09;;;;;;;2.67;0.30;;;;;;;26.66;50.06;100987.09;5069542;28;20035;-66
2022/07/14 09:11:35;;;;;;;2.00;0.82;;;;;;;26.66;50.40;100979.88;5069584;28;20395;-67
2022/07/14 09:14:10;;;;;;;2.00;0.40;;;;;;;26.65;49.86;100980.13;5070139;28;20468;-67
2022/07/14 09:16:36;;;;;;;5.95;0.40;;;;;;;26.66;49.45;100977.22;5068721;28;20024;-65
2022/07/14 09:19:09;;;;;;;2.33;0.30;;;;;;;26.65;49.37;100985.47;5069242;28;20074;-66
2022/07/14 09:21:37;;;;;;;2.28;0.40;;;;;;;26.66;49.40;100982.56;5069279;28;20051;-66
2022/07/14 09:24:08;;;;;;;1.45;0.30;;;;;;;26.70;48.95;100980.22;5070068;28;20028;-66
2022/07/14 09:26:45;;;;;;;2.33;0.40;;;;;;;26.71;48.46;100973.81;5070564;28;20040;-66
2022/07/14 09:29:29;;;;;;;2.13;0.32;;;;;;;26.70;48.31;100981.03;5070489;28;20028;-66
2022/07/14 09:31:55;;;;;;;4.38;0.45;;;;;;;26.68;48.42;100972.44;5069828;28;20557;-66
2022/07/14 09:34:38;;;;;;;3.88;0.32;;;;;;;26.66;47.98;100966.53;5068456;28;20028;-66
2022/07/14 09:37:15;;;;;;;2.28;0.25;;;;;;;26.65;48.08;100964.09;5068454;28;20259;-67
2022/07/14 09:39:52;;;;;;;1.70;0.30;;;;;;;26.64;47.96;100973.97;5068830;28;20028;-65
2022/07/14 09:42:17;;;;;;;4.25;0.30;;;;;;;26.66;48.37;100966.53;5069485;28;20080;-65
2022/07/14 09:44:43;;;;;;;1.05;0.28;;;;;;;26.67;48.41;100960.13;5068213;28;20595;-65
2022/07/14 09:47:08;;;;;;;2.45;0.40;;;;;;;26.68;48.57;100969.78;5068327;28;20039;-65
2022/07/14 09:49:37;;;;;;;4.47;0.32;;;;;;;26.71;48.46;100963.94;5068040;28;20350;-65
2022/07/14 09:52:04;;;;;;;0.50;0.30;;;;;;;26.71;48.20;100965.81;5065064;28;20050;-65
2022/07/14 09:54:58;;;;;;;3.83;0.40;;;;;;;26.70;48.00;100961.50;5069202;28;20037;-66
2022/07/14 09:57:26;;;;;;;0.90;0.20;;;;;;;26.72;47.80;100962.09;5051293;28;20540;-67
2022/07/14 10:00:12;;;;;;;3.45;0.30;;;;;;;26.71;48.15;100963.94;5068715;28;20107;-67
2022/07/14 10:02:40;;;;;;;1.77;0.40;;;;;;;26.74;48.33;100962.66;5062480;28;20526;-65
2022/07/14 10:05:08;;;;;;;2.95;0.35;;;;;;;26.75;48.51;100959.75;5069579;28;20032;-66
2022/07/14 10:07:36;;;;;;;5.15;0.30;;;;;;;26.78;48.05;100959.28;5067214;28;20023;-66
2022/07/14 10:10:13;;;;;;;1.77;0.35;;;;;;;26.81;47.46;100959.84;5069149;28;20024;-65
2022/07/14 10:12:44;;;;;;;2.38;0.35;;;;;;;26.84;46.91;100952.16;5068972;28;20388;-65
2022/07/14 10:15:12;;;;;;;2.83;0.40;;;;;;;26.84;47.32;100946.00;5067934;28;20051;-66
2022/07/14 10:17:40;;;;;;;2.67;0.30;;;;;;;26.91;47.44;100952.00;5069150;28;20025;-64
2022/07/14 10:20:10;;;;;;;5.38;0.40;;;;;;;26.96;47.52;100954.78;5067522;28;20359;-64
2022/07/14 10:22:35;;;;;;;1.52;0.30;;;;;;;26.98;47.11;100950.81;5065981;28;20777;-65
2022/07/14 10:25:03;;;;;;;1.65;0.20;;;;;;;27.00;47.41;100948.72;5069315;28;20106;-65
2022/07/14 10:27:29;;;;;;;2.85;0.40;;;;;;;26.95;47.61;100945.91;5069162;28;20027;-69
2022/07/14 10:29:56;;;;;;;1.58;0.30;;;;;;;26.97;47.58;100945.72;5068725;28;20021;-66
2022/07/14 10:32:50;;;;;;;2.20;0.30;;;;;;;27.00;46.73;100942.56;5066650;28;20078;-67
2022/07/14 10:35:20;;;;;;;2.25;0.30;;;;;;;27.00;46.94;100935.34;5066504;28;20127;-65
2022/07/14 10:38:22;;;;;;;1.35;0.40;;;;;;;27.00;46.75;100930.00;5066328;28;20033;-66
2022/07/14 10:40:54;;;;;;;2.65;0.30;;;;;;;26.98;47.14;100932.09;5065644;28;20158;-65
2022/07/14 10:43:24;;;;;;;0.68;0.20;;;;;;;26.99;47.59;100938.25;5057755;28;20060;-62
2022/07/14 10:45:55;;;;;;;1.85;0.28;;;;;;;27.02;47.63;100937.78;5067357;28;20028;-65
2022/07/14 10:48:35;;;;;;;1.38;0.30;;;;;;;27.05;47.35;100937.28;5066619;28;20078;-65
2022/07/14 10:51:26;;;;;;;1.52;0.30;;;;;;;27.07;47.39;100933.31;5068808;28;20153;-64
2022/07/14 10:54:07;;;;;;;4.25;0.40;;;;;;;27.09;47.32;100930.41;5066976;28;20025;-63
2022/07/14 10:56:33;;;;;;;4.18;0.30;;;;;;;27.11;47.59;100925.63;5068410;28;20032;-63
2022/07/14 10:59:26;;;;;;;2.83;0.30;;;;;;;27.17;46.90;100919.31;5068831;28;20094;-65
2022/07/14 11:02:13;;;;;;;2.38;0.50;;;;;;;27.21;47.36;100925.81;5067302;28;20476;-64
2022/07/14 11:04:59;;;;;;;2.35;0.40;;;;;;;27.25;47.94;100921.59;5068387;28;20043;-63
2022/07/14 11:07:52;;;;;;;1.88;0.40;;;;;;;27.25;47.87;100926.94;5067233;28;20031;-64
2022/07/14 11:10:18;;;;;;;34.53;30.85;;;;;;;27.34;48.66;100919.31;5048234;28;20033;-63
2022/07/14 11:13:05;;;;;;;47.17;41.65;;;;;;;27.48;48.32;100925.13;5063193;28;20082;-65
2022/07/14 11:15:45;;;;;;;19.25;14.27;;;;;;;27.54;47.70;100914.25;5068400;28;20047;-66
2022/07/14 11:18:17;;;;;;;9.88;7.97;;;;;;;27.54;47.87;100908.91;5067162;28;20032;-68
2022/07/14 11:20:58;;;;;;;5.93;3.90;;;;;;;27.54;47.63;100913.44;5067178;28;20380;-67
2022/07/14 11:23:29;;;;;;;2.75;1.45;;;;;;;27.52;47.73;100920.91;5066889;28;20431;-67
2022/07/14 11:25:56;;;;;;;3.78;1.00;;;;;;;27.49;47.55;100921.41;5068247;28;20050;-67
2022/07/14 11:28:50;;;;;;;2.65;0.85;;;;;;;27.46;47.50;100913.84;5067988;28;20028;-64
2022/07/14 11:31:17;;;;;;;2.42;0.60;;;;;;;27.43;47.92;100910.63;5061591;28;20040;-67
2022/07/14 11:36:36;;;;;;;1.23;0.30;;;;;;;27.43;47.86;100899.91;5070970;28;20125;-64
2022/07/14 11:39:16;;;;;;;0.43;0.22;;;;;;;27.45;48.06;100888.97;5070716;28;20019;-64